createdAt,value
2022-11-29T00:01:35.417Z,18.63
2022-11-29T00:04:05.841Z,18.43
2022-11-29T00:06:35.959Z,17.67
2022-11-29T00:09:08.025Z,19.20
2022-11-29T00:11:55.943Z,18.67
2022-11-29T00:14:25.156Z,19.70
2022-11-29T00:16:55.468Z,18.50
2022-11-29T00:19:24.985Z,19.90
2022-11-29T00:21:53.254Z,16.17
2022-11-29T00:24:21.583Z,16.33
2022-11-29T00:26:49.577Z,20.77
2022-11-29T00:29:18.125Z,19.40
2022-11-29T00:31:46.311Z,19.50
2022-11-29T00:34:14.385Z,18.10
2022-11-29T00:36:43.744Z,19.70
2022-11-29T00:39:12.860Z,20.07
2022-11-29T00:41:41.035Z,18.47
2022-11-29T00:44:12.822Z,18.60
2022-11-29T00:46:43.400Z,19.43
2022-11-29T00:49:11.472Z,18.70
2022-11-29T00:51:39.654Z,17.57
2022-11-29T00:54:09.012Z,18.23
2022-11-29T00:56:37.028Z,18.93
2022-11-29T00:59:05.134Z,19.00
2022-11-29T01:01:33.195Z,19.50
2022-11-29T01:04:01.876Z,19.77
2022-11-29T01:06:29.953Z,20.13
2022-11-29T01:08:57.956Z,19.57
2022-11-29T01:11:28.840Z,17.47
2022-11-29T01:13:58.505Z,19.37
2022-11-29T01:16:27.027Z,20.13
2022-11-29T01:18:55.110Z,19.87
2022-11-29T01:21:24.642Z,19.27
2022-11-29T01:23:54.482Z,19.63
2022-11-29T01:26:24.624Z,18.20
2022-11-29T01:28:55.929Z,20.90
2022-11-29T01:31:25.575Z,20.23
2022-11-29T01:33:55.781Z,19.43
2022-11-29T01:36:24.331Z,20.67
2022-11-29T01:38:53.017Z,21.00
2022-11-29T01:41:22.799Z,20.23
2022-11-29T01:44:02.073Z,21.07
2022-11-29T01:46:31.689Z,20.23
2022-11-29T01:49:05.339Z,22.20
2022-11-29T01:51:35.646Z,19.57
2022-11-29T01:54:03.873Z,18.70
2022-11-29T01:56:34.137Z,20.97
2022-11-29T01:59:06.955Z,20.00
2022-11-29T02:01:36.040Z,21.00
2022-11-29T02:04:04.153Z,20.27
2022-11-29T02:06:32.229Z,21.20
2022-11-29T02:09:00.321Z,19.70
2022-11-29T02:11:52.076Z,20.90
2022-11-29T02:14:37.512Z,21.33
2022-11-29T02:17:14.345Z,21.53
2022-11-29T02:20:06.745Z,20.07
2022-11-29T02:22:42.231Z,19.10
2022-11-29T02:25:24.347Z,20.97
2022-11-29T02:28:15.928Z,21.80
2022-11-29T02:31:05.373Z,19.97
2022-11-29T02:33:58.164Z,22.43
2022-11-29T02:36:56.782Z,22.63
2022-11-29T02:39:40.916Z,22.93
2022-11-29T02:42:56.214Z,24.07
2022-11-29T02:45:39.466Z,23.50
2022-11-29T02:48:23.121Z,24.67
2022-11-29T02:50:59.415Z,24.10
2022-11-29T02:53:33.312Z,22.13
2022-11-29T02:56:11.247Z,26.37
2022-11-29T02:58:46.528Z,24.83
2022-11-29T03:01:19.377Z,25.17
2022-11-29T03:03:55.869Z,24.93
2022-11-29T03:06:33.147Z,25.10
2022-11-29T03:09:08.716Z,26.37
2022-11-29T03:11:46.501Z,26.70
2022-11-29T03:14:25.076Z,27.30
2022-11-29T03:17:01.162Z,27.03
2022-11-29T03:19:41.396Z,27.13
2022-11-29T03:22:20.162Z,27.63
2022-11-29T03:24:55.693Z,27.10
2022-11-29T03:27:31.868Z,28.13
2022-11-29T03:30:03.363Z,27.43
2022-11-29T03:32:39.145Z,26.87
2022-11-29T03:35:13.748Z,27.80
2022-11-29T03:37:51.384Z,26.30
2022-11-29T03:40:22.294Z,26.77
2022-11-29T03:42:57.572Z,27.50
2022-11-29T03:45:30.920Z,28.10
2022-11-29T03:48:04.930Z,28.63
2022-11-29T03:50:36.188Z,27.97
2022-11-29T03:53:15.643Z,28.37
2022-11-29T03:55:51.625Z,27.30
2022-11-29T03:58:36.748Z,27.53
2022-11-29T04:01:34.796Z,27.20
2022-11-29T04:04:25.866Z,27.43
2022-11-29T04:07:08.024Z,25.57
2022-11-29T04:09:53.695Z,30.13
2022-11-29T04:13:06.625Z,29.13
2022-11-29T04:16:21.720Z,27.37
2022-11-29T04:19:20.628Z,28.30
2022-11-29T04:22:15.439Z,28.83
2022-11-29T04:25:04.786Z,29.47
2022-11-29T04:27:54.324Z,29.03
2022-11-29T04:30:23.537Z,32.20
2022-11-29T04:33:26.596Z,31.57
2022-11-29T04:36:22.154Z,30.50
2022-11-29T04:39:16.937Z,31.67
2022-11-29T04:42:26.874Z,31.87
2022-11-29T04:45:31.086Z,31.73
2022-11-29T04:48:17.585Z,33.10
2022-11-29T04:50:57.175Z,31.70
2022-11-29T04:53:48.794Z,32.13
2022-11-29T04:56:24.761Z,32.20
2022-11-29T04:59:00.228Z,33.17
2022-11-29T05:01:36.996Z,33.87
2022-11-29T05:04:14.580Z,29.23
2022-11-29T05:06:51.048Z,33.77
2022-11-29T05:09:27.280Z,35.47
2022-11-29T05:12:04.128Z,33.33
2022-11-29T05:14:51.637Z,34.77
2022-11-29T05:17:32.477Z,34.03
2022-11-29T05:20:11.861Z,34.00
2022-11-29T05:22:49.191Z,34.43
2022-11-29T05:25:35.383Z,34.47
2022-11-29T05:28:12.344Z,35.00
2022-11-29T05:31:04.922Z,33.80
2022-11-29T05:33:52.412Z,33.60
2022-11-29T05:36:25.552Z,33.77
2022-11-29T05:39:08.690Z,34.93
2022-11-29T05:42:02.390Z,36.57
2022-11-29T05:44:36.653Z,32.73
2022-11-29T05:47:10.000Z,33.67
2022-11-29T05:49:44.448Z,36.70
2022-11-29T05:52:25.491Z,35.13
2022-11-29T05:55:10.257Z,34.77
2022-11-29T05:57:44.456Z,34.93
2022-11-29T06:00:16.831Z,37.07
2022-11-29T06:02:59.972Z,36.40
2022-11-29T06:05:36.523Z,36.00
2022-11-29T06:08:09.768Z,37.03
2022-11-29T06:10:41.018Z,37.03
2022-11-29T06:13:18.188Z,32.40
2022-11-29T06:16:07.307Z,36.67
2022-11-29T06:19:16.217Z,35.77
2022-11-29T06:21:52.765Z,36.67
2022-11-29T06:24:39.083Z,35.47
2022-11-29T06:27:30.170Z,34.53
2022-11-29T06:30:06.840Z,35.47
2022-11-29T06:32:44.668Z,36.03
2022-11-29T06:35:34.813Z,35.17
2022-11-29T06:38:07.671Z,33.97
2022-11-29T06:40:36.396Z,37.43
2022-11-29T06:43:04.960Z,37.13
2022-11-29T06:45:33.725Z,37.53
2022-11-29T06:48:04.765Z,37.93
2022-11-29T06:50:41.778Z,35.80
2022-11-29T06:53:17.866Z,36.90
2022-11-29T06:55:58.133Z,37.27
2022-11-29T06:58:38.673Z,36.03
2022-11-29T07:01:17.308Z,35.83
2022-11-29T07:04:03.592Z,35.43
2022-11-29T07:06:34.965Z,36.50
2022-11-29T07:09:11.355Z,37.27
2022-11-29T07:11:40.307Z,37.30
2022-11-29T07:14:09.785Z,37.47
2022-11-29T07:16:46.105Z,35.87
2022-11-29T07:19:19.959Z,37.37
2022-11-29T07:21:59.955Z,35.40
2022-11-29T07:24:40.138Z,37.87
2022-11-29T07:27:15.949Z,36.53
2022-11-29T07:29:52.954Z,36.63
2022-11-29T07:32:29.121Z,35.93
2022-11-29T07:35:09.577Z,35.57
2022-11-29T07:37:50.732Z,36.20
2022-11-29T07:40:25.179Z,36.20
2022-11-29T07:43:14.597Z,35.37
2022-11-29T07:45:42.961Z,35.37
2022-11-29T07:48:12.805Z,35.83
2022-11-29T07:50:41.589Z,35.20
2022-11-29T07:53:17.834Z,36.37
2022-11-29T07:55:46.257Z,35.03
2022-11-29T07:58:15.956Z,37.17
2022-11-29T08:00:45.019Z,38.07
2022-11-29T08:03:13.706Z,36.00
2022-11-29T08:05:46.808Z,35.37
2022-11-29T08:08:16.333Z,37.13
2022-11-29T08:10:44.369Z,36.73
2022-11-29T08:13:12.372Z,35.77
2022-11-29T08:15:45.538Z,32.40
2022-11-29T08:18:13.789Z,37.73
2022-11-29T08:20:42.189Z,37.67
2022-11-29T08:23:12.563Z,37.20
2022-11-29T08:25:42.189Z,38.07
2022-11-29T08:28:10.543Z,33.73
2022-11-29T08:30:38.612Z,37.00
2022-11-29T08:33:07.121Z,36.47
2022-11-29T08:35:36.824Z,39.73
2022-11-29T08:38:04.946Z,37.60
2022-11-29T08:40:32.989Z,39.10
2022-11-29T08:43:02.413Z,39.17
2022-11-29T08:45:30.460Z,38.53
2022-11-29T08:47:58.547Z,37.17
2022-11-29T08:50:26.607Z,37.43
2022-11-29T08:53:12.226Z,38.30
2022-11-29T08:55:42.897Z,38.73
2022-11-29T08:58:14.297Z,37.53
2022-11-29T09:00:45.550Z,36.23
2022-11-29T09:03:31.213Z,38.83
2022-11-29T09:06:10.480Z,37.80
2022-11-29T09:08:40.248Z,39.50
2022-11-29T09:11:13.176Z,39.13
2022-11-29T09:13:43.646Z,37.67
2022-11-29T09:16:13.881Z,36.50
2022-11-29T09:18:47.214Z,37.40
2022-11-29T09:21:18.748Z,38.57
2022-11-29T09:23:47.437Z,37.63
2022-11-29T09:26:19.073Z,34.13
2022-11-29T09:28:49.269Z,37.27
2022-11-29T09:31:17.692Z,38.10
2022-11-29T09:33:46.509Z,37.47
2022-11-29T09:36:14.768Z,39.57
2022-11-29T09:38:42.853Z,38.40
2022-11-29T09:41:31.439Z,39.20
2022-11-29T09:44:06.856Z,39.60
2022-11-29T09:46:41.751Z,40.17
2022-11-29T09:49:24.556Z,39.10
2022-11-29T09:52:03.993Z,36.23
2022-11-29T09:54:41.138Z,34.67
2022-11-29T09:57:10.991Z,39.90
2022-11-29T09:59:44.001Z,38.60
2022-11-29T10:02:21.575Z,37.80
2022-11-29T10:04:54.975Z,37.50
2022-11-29T10:07:27.828Z,36.40
2022-11-29T10:09:59.393Z,37.83
2022-11-29T10:12:34.932Z,39.67
2022-11-29T10:15:13.772Z,37.33
2022-11-29T10:17:46.044Z,38.37
2022-11-29T10:20:17.969Z,38.67
2022-11-29T10:22:53.319Z,36.23
2022-11-29T10:25:26.003Z,37.83
2022-11-29T10:27:54.407Z,38.17
2022-11-29T10:30:23.968Z,33.97
2022-11-29T10:33:01.140Z,40.73
2022-11-29T10:35:29.698Z,36.43
2022-11-29T10:38:29.812Z,38.83
2022-11-29T10:40:55.095Z,38.17
2022-11-29T10:43:24.714Z,39.90
2022-11-29T10:45:56.450Z,38.00
2022-11-29T10:48:28.324Z,36.83
2022-11-29T10:50:56.342Z,36.43
2022-11-29T10:53:27.192Z,41.97
2022-11-29T10:56:02.061Z,38.60
2022-11-29T10:58:31.234Z,40.77
2022-11-29T11:01:02.413Z,41.73
2022-11-29T11:03:37.033Z,41.23
2022-11-29T11:06:12.568Z,42.20
2022-11-29T11:08:43.484Z,42.60
2022-11-29T11:11:12.640Z,40.53
2022-11-29T11:13:41.402Z,41.50
2022-11-29T11:16:17.662Z,39.03
2022-11-29T11:18:47.154Z,38.97
2022-11-29T11:21:16.945Z,39.40
2022-11-29T11:23:54.083Z,39.30
2022-11-29T11:26:23.090Z,41.43
2022-11-29T11:28:55.309Z,41.03
2022-11-29T11:31:34.240Z,40.07
2022-11-29T11:34:26.490Z,39.77
2022-11-29T11:36:55.754Z,40.67
2022-11-29T11:39:24.746Z,40.73
2022-11-29T11:42:10.969Z,38.13
2022-11-29T11:44:49.237Z,36.80
2022-11-29T11:47:22.010Z,39.77
2022-11-29T11:49:56.749Z,37.97
2022-11-29T11:52:28.497Z,38.30
2022-11-29T11:55:00.740Z,39.00
2022-11-29T11:57:29.704Z,39.67
2022-11-29T12:00:05.018Z,34.57
2022-11-29T12:02:42.020Z,39.77
2022-11-29T12:05:14.322Z,40.23
2022-11-29T12:10:39.714Z,42.77
2022-11-29T12:13:16.007Z,37.57
2022-11-29T12:15:48.365Z,39.30
2022-11-29T12:18:25.753Z,41.33
2022-11-29T12:20:58.033Z,40.73
2022-11-29T12:23:36.928Z,38.97
2022-11-29T12:26:13.642Z,40.07
2022-11-29T12:28:48.224Z,42.07
2022-11-29T12:31:31.944Z,41.90
2022-11-29T12:34:22.451Z,40.07
2022-11-29T12:36:56.797Z,40.53
2022-11-29T12:39:50.721Z,41.97
2022-11-29T12:42:27.545Z,40.47
2022-11-29T12:45:02.556Z,38.60
2022-11-29T12:47:44.411Z,41.47
2022-11-29T12:50:27.445Z,40.97
2022-11-29T12:53:08.238Z,37.67
2022-11-29T12:55:49.529Z,42.27
2022-11-29T12:58:27.243Z,42.50
2022-11-29T13:01:04.476Z,43.93
2022-11-29T13:03:45.728Z,39.77
2022-11-29T13:06:24.141Z,40.67
2022-11-29T13:09:15.298Z,40.40
2022-11-29T13:11:49.716Z,40.67
2022-11-29T13:17:27.969Z,41.33
2022-11-29T13:19:59.444Z,41.10
2022-11-29T13:22:35.885Z,41.83
2022-11-29T13:25:13.385Z,40.87
2022-11-29T13:27:45.460Z,38.10
2022-11-29T13:30:16.831Z,41.70
2022-11-29T13:32:52.992Z,40.07
2022-11-29T13:35:25.789Z,40.23
2022-11-29T13:37:58.926Z,37.10
2022-11-29T13:40:36.331Z,39.33
2022-11-29T13:43:13.973Z,39.93
2022-11-29T13:45:46.938Z,40.93
2022-11-29T13:48:37.833Z,39.00
2022-11-29T13:51:34.196Z,42.47
2022-11-29T13:54:06.046Z,39.57
2022-11-29T13:56:43.053Z,41.43
2022-11-29T13:59:19.327Z,40.20
2022-11-29T14:01:50.334Z,41.03
2022-11-29T14:04:35.260Z,37.93
2022-11-29T14:07:06.052Z,40.30
2022-11-29T14:09:56.694Z,39.53
2022-11-29T14:12:50.346Z,41.07
2022-11-29T14:15:23.972Z,42.43
2022-11-29T14:17:56.741Z,41.60
2022-11-29T14:20:58.512Z,41.70
2022-11-29T14:23:35.039Z,42.40
2022-11-29T14:26:28.570Z,42.37
2022-11-29T14:28:57.804Z,42.37
2022-11-29T14:31:55.926Z,43.67
2022-11-29T14:34:42.999Z,44.97
2022-11-29T14:37:37.706Z,43.23
2022-11-29T14:40:20.776Z,42.13
2022-11-29T14:42:52.707Z,45.03
2022-11-29T14:45:27.322Z,42.07
2022-11-29T14:47:56.211Z,40.40
2022-11-29T14:50:32.887Z,44.17
2022-11-29T14:53:01.345Z,41.90
2022-11-29T14:55:33.330Z,43.83
2022-11-29T14:58:19.108Z,44.47
2022-11-29T15:01:08.389Z,43.47
2022-11-29T15:03:47.653Z,43.43
2022-11-29T15:06:23.189Z,43.77
2022-11-29T15:08:58.591Z,44.93
2022-11-29T15:11:47.801Z,45.47
2022-11-29T15:14:24.114Z,43.63
2022-11-29T15:17:02.206Z,41.27
2022-11-29T15:19:53.799Z,41.67
2022-11-29T15:22:26.422Z,42.77
2022-11-29T15:24:56.545Z,42.60
2022-11-29T15:27:25.445Z,43.53
2022-11-29T15:29:54.857Z,42.90
2022-11-29T15:32:26.722Z,40.97
2022-11-29T15:34:56.219Z,43.23
2022-11-29T15:37:39.173Z,42.23
2022-11-29T15:40:13.779Z,42.10
2022-11-29T15:42:44.330Z,40.20
2022-11-29T15:45:29.273Z,43.97
2022-11-29T15:48:12.474Z,43.10
2022-11-29T15:50:44.670Z,43.00
2022-11-29T15:53:19.059Z,42.53
2022-11-29T15:55:49.458Z,40.43
2022-11-29T15:58:18.308Z,42.53
2022-11-29T16:00:50.452Z,40.50
2022-11-29T16:03:25.172Z,41.30
2022-11-29T16:06:03.527Z,42.33
2022-11-29T16:08:35.637Z,45.30
2022-11-29T16:11:03.737Z,42.27
2022-11-29T16:13:38.242Z,43.70
2022-11-29T16:16:12.537Z,40.73
2022-11-29T16:18:42.828Z,43.07
2022-11-29T16:21:25.379Z,42.80
2022-11-29T16:23:54.171Z,39.47
2022-11-29T16:26:25.197Z,44.43
2022-11-29T16:28:56.245Z,42.53
2022-11-29T16:31:32.807Z,42.97
2022-11-29T16:34:08.977Z,41.53
2022-11-29T16:36:37.281Z,42.63
2022-11-29T16:39:07.973Z,40.43
2022-11-29T16:41:38.151Z,42.87
2022-11-29T16:44:22.741Z,45.03
2022-11-29T16:47:12.414Z,41.63
2022-11-29T16:49:40.500Z,38.83
2022-11-29T16:52:25.454Z,37.63
2022-11-29T16:54:53.476Z,41.47
2022-11-29T16:57:22.516Z,42.80
2022-11-29T16:59:51.187Z,40.93
2022-11-29T17:02:20.728Z,43.23
2022-11-29T17:05:17.487Z,42.07
2022-11-29T17:07:45.888Z,43.13
2022-11-29T17:10:18.804Z,41.80
2022-11-29T17:12:48.403Z,41.07
2022-11-29T17:15:16.770Z,42.40
2022-11-29T17:17:46.339Z,41.83
2022-11-29T17:20:14.853Z,42.07
2022-11-29T17:22:43.101Z,43.03
2022-11-29T17:25:11.929Z,42.77
2022-11-29T17:27:39.945Z,43.90
2022-11-29T17:30:11.214Z,44.30
2022-11-29T17:32:39.308Z,42.93
2022-11-29T17:35:09.164Z,42.23
2022-11-29T17:37:37.132Z,39.80
2022-11-29T17:40:05.660Z,41.30
2022-11-29T17:42:33.663Z,45.53
2022-11-29T17:45:01.638Z,42.17
2022-11-29T17:47:29.629Z,43.70
2022-11-29T17:49:58.059Z,43.00
2022-11-29T17:52:27.421Z,42.83
2022-11-29T17:54:55.448Z,42.60
2022-11-29T17:57:23.410Z,47.83
2022-11-29T17:59:51.402Z,47.17
2022-11-29T18:02:19.445Z,46.03
2022-11-29T18:04:47.505Z,44.23
2022-11-29T18:07:17.134Z,44.07
2022-11-29T18:09:48.430Z,43.30
2022-11-29T18:12:16.650Z,45.13
2022-11-29T18:14:44.653Z,44.77
2022-11-29T18:17:12.723Z,43.77
2022-11-29T18:19:40.830Z,44.70
2022-11-29T18:22:08.957Z,44.60
2022-11-29T18:24:36.964Z,45.10
2022-11-29T18:27:06.440Z,44.17
2022-11-29T18:29:39.087Z,45.33
2022-11-29T18:32:13.791Z,44.10
2022-11-29T18:34:41.824Z,46.20
2022-11-29T18:37:15.334Z,46.53
2022-11-29T18:39:46.241Z,46.37
2022-11-29T18:42:15.668Z,45.83
2022-11-29T18:44:43.715Z,44.10
2022-11-29T18:47:11.789Z,45.53
2022-11-29T18:49:39.799Z,44.77
2022-11-29T18:52:07.776Z,45.67
2022-11-29T18:54:35.773Z,47.03
2022-11-29T18:57:03.857Z,44.47
2022-11-29T18:59:33.670Z,47.40
2022-11-29T19:02:01.692Z,47.30
2022-11-29T19:04:30.052Z,45.90
2022-11-29T19:06:58.033Z,45.17
2022-11-29T19:09:26.122Z,47.80
2022-11-29T19:11:54.116Z,45.30
2022-11-29T19:14:22.354Z,45.80
2022-11-29T19:16:51.746Z,47.03
2022-11-29T19:19:20.061Z,46.10
2022-11-29T19:21:48.337Z,46.47
2022-11-29T19:24:18.197Z,45.20
2022-11-29T19:26:48.643Z,48.33
2022-11-29T19:29:17.162Z,43.50
2022-11-29T19:31:45.376Z,46.53
2022-11-29T19:34:14.808Z,47.50
2022-11-29T19:36:44.563Z,48.13
2022-11-29T19:39:14.314Z,45.63
2022-11-29T19:41:43.787Z,47.20
2022-11-29T19:44:12.037Z,46.27
2022-11-29T19:46:42.347Z,45.40
2022-11-29T19:49:11.972Z,46.50
2022-11-29T19:51:41.703Z,46.57
2022-11-29T19:54:11.825Z,48.33
2022-11-29T19:56:40.389Z,47.73
2022-11-29T19:59:08.763Z,48.43
2022-11-29T20:01:41.246Z,47.90
2022-11-29T20:04:10.386Z,47.53
2022-11-29T20:06:42.766Z,44.60
2022-11-29T20:09:11.069Z,47.27
2022-11-29T20:11:39.343Z,49.17
2022-11-29T20:14:07.941Z,48.73
2022-11-29T20:16:37.756Z,46.63
2022-11-29T20:19:10.750Z,49.53
2022-11-29T20:21:44.940Z,47.10
2022-11-29T20:24:14.315Z,49.67
2022-11-29T20:26:44.497Z,45.30
2022-11-29T20:29:13.521Z,48.23
2022-11-29T20:31:49.163Z,49.53
2022-11-29T20:34:19.345Z,45.00
2022-11-29T20:37:07.465Z,48.80
2022-11-29T20:39:42.561Z,48.20
2022-11-29T20:42:32.917Z,49.33
2022-11-29T20:45:02.663Z,49.47
2022-11-29T20:47:41.254Z,49.80
2022-11-29T20:50:14.479Z,46.43
2022-11-29T20:52:50.165Z,51.50
2022-11-29T20:55:18.621Z,48.17
2022-11-29T20:57:46.733Z,49.27
2022-11-29T21:00:16.165Z,47.67
2022-11-29T21:02:44.144Z,49.47
2022-11-29T21:05:12.189Z,47.50
2022-11-29T21:07:40.244Z,45.23
2022-11-29T21:10:11.051Z,48.50
2022-11-29T21:12:39.675Z,49.53
2022-11-29T21:15:09.716Z,47.73
2022-11-29T21:17:38.248Z,46.50
2022-11-29T21:20:07.990Z,49.50
2022-11-29T21:22:46.857Z,46.50
2022-11-29T21:25:23.264Z,47.77
2022-11-29T21:27:53.290Z,48.97
2022-11-29T21:30:23.585Z,46.20
2022-11-29T21:32:52.344Z,47.10
2022-11-29T21:35:20.388Z,47.43
2022-11-29T21:37:48.463Z,44.67
2022-11-29T21:40:18.025Z,44.93
2022-11-29T21:42:46.001Z,45.77
2022-11-29T21:45:15.786Z,46.87
2022-11-29T21:47:44.901Z,46.93
2022-11-29T21:50:13.459Z,46.27
2022-11-29T21:52:41.737Z,46.13
2022-11-29T21:55:10.367Z,45.73
2022-11-29T21:57:39.784Z,45.70
2022-11-29T22:00:09.132Z,42.37
2022-11-29T22:02:37.620Z,43.97
2022-11-29T22:05:07.915Z,43.47
2022-11-29T22:07:35.951Z,47.33
2022-11-29T22:10:11.702Z,46.73
2022-11-29T22:12:51.388Z,46.00
2022-11-29T22:15:24.795Z,46.53
2022-11-29T22:17:53.838Z,43.63
2022-11-29T22:20:21.923Z,44.20
2022-11-29T22:22:52.518Z,45.90
2022-11-29T22:25:22.558Z,44.70
2022-11-29T22:27:52.064Z,46.00
2022-11-29T22:30:21.081Z,45.00
2022-11-29T22:32:49.093Z,46.10
2022-11-29T22:35:17.197Z,46.23
2022-11-29T22:37:45.640Z,44.20
2022-11-29T22:40:14.127Z,44.80
2022-11-29T22:42:43.191Z,42.57
2022-11-29T22:45:12.851Z,47.03
2022-11-29T22:47:40.836Z,47.43
2022-11-29T22:50:09.935Z,46.93
2022-11-29T22:52:38.010Z,45.87
2022-11-29T22:55:06.681Z,46.00
2022-11-29T22:57:34.657Z,47.37
2022-11-29T23:00:02.748Z,46.77
2022-11-29T23:02:32.225Z,46.63
2022-11-29T23:05:00.252Z,47.93
2022-11-29T23:07:28.310Z,45.60
2022-11-29T23:09:56.540Z,48.77
2022-11-29T23:12:24.629Z,44.13
2022-11-29T23:14:56.370Z,48.93
2022-11-29T23:17:24.876Z,48.40
2022-11-29T23:19:54.254Z,48.47
2022-11-29T23:22:22.264Z,48.23
2022-11-29T23:24:50.235Z,49.03
2022-11-29T23:27:18.215Z,47.17
2022-11-29T23:29:46.196Z,49.23
2022-11-29T23:32:14.173Z,47.67
2022-11-29T23:34:42.469Z,46.40
2022-11-29T23:37:11.803Z,47.73
2022-11-29T23:39:39.828Z,43.13
2022-11-29T23:42:07.819Z,49.30
2022-11-29T23:44:35.820Z,46.17
2022-11-29T23:47:03.902Z,45.17
2022-11-29T23:49:32.196Z,48.40
2022-11-29T23:52:00.185Z,46.67
2022-11-29T23:54:29.637Z,46.90
2022-11-29T23:56:57.652Z,48.27
2022-11-29T23:59:25.633Z,47.87
